sensor_id;sensor_type;location;lat;lon;timestamp;temperature;humidity
21815;DHT22;11069;48.988;8.450;2022-10-16T17:02:56;17.20;99.90
21815;DHT22;11069;48.988;8.450;2022-10-16T17:05:22;17.20;99.90
21815;DHT22;11069;48.988;8.450;2022-10-16T17:07:48;17.30;99.90
21815;DHT22;11069;48.988;8.450;2022-10-16T17:10:14;17.20;99.90
21815;DHT22;11069;48.988;8.450;2022-10-16T17:12:40;17.10;99.90
21815;DHT22;11069;48.988;8.450;2022-10-16T17:15:06;17.00;99.90
21815;DHT22;11069;48.988;8.450;2022-10-16T17:17:32;16.90;99.90
21815;DHT22;11069;48.988;8.450;2022-10-16T17:19:57;16.90;99.90
21815;DHT22;11069;48.988;8.450;2022-10-16T17:22:23;16.80;99.90
21815;DHT22;11069;48.988;8.450;2022-10-16T17:24:49;16.90;99.90
21815;DHT22;11069;48.988;8.450;2022-10-16T17:27:17;16.70;99.90
21815;DHT22;11069;48.988;8.450;2022-10-16T17:29:43;16.80;99.90
21815;DHT22;11069;48.988;8.450;2022-10-16T17:32:08;16.80;99.90
21815;DHT22;11069;48.988;8.450;2022-10-16T17:34:34;16.70;99.90
21815;DHT22;11069;48.988;8.450;2022-10-16T17:37:00;16.70;99.90
21815;DHT22;11069;48.988;8.450;2022-10-16T17:39:26;16.70;99.90
21815;DHT22;11069;48.988;8.450;2022-10-16T17:41:52;16.70;99.90
21815;DHT22;11069;48.988;8.450;2022-10-16T17:44:18;16.60;99.90
21815;DHT22;11069;48.988;8.450;2022-10-16T17:46:51;16.60;99.90
21815;DHT22;11069;48.988;8.450;2022-10-16T17:49:17;16.50;99.90
21815;DHT22;11069;48.988;8.450;2022-10-16T17:51:44;16.40;99.90
21815;DHT22;11069;48.988;8.450;2022-10-16T17:54:10;16.40;99.90
21815;DHT22;11069;48.988;8.450;2022-10-16T17:56:39;16.30;99.90
21815;DHT22;11069;48.988;8.450;2022-10-16T17:59:04;16.30;99.90
21815;DHT22;11069;48.988;8.450;2022-10-16T18:01:36;16.30;99.90
21815;DHT22;11069;48.988;8.450;2022-10-16T18:04:19;16.30;99.90
21815;DHT22;11069;48.988;8.450;2022-10-16T18:06:45;16.20;99.90
21815;DHT22;11069;48.988;8.450;2022-10-16T18:09:14;16.20;99.90
21815;DHT22;11069;48.988;8.450;2022-10-16T18:11:40;16.10;99.90
21815;DHT22;11069;48.988;8.450;2022-10-16T18:14:05;16.10;99.90
21815;DHT22;11069;48.988;8.450;2022-10-16T18:16:31;16.10;99.90
21815;DHT22;11069;48.988;8.450;2022-10-16T18:18:58;16.00;99.90
21815;DHT22;11069;48.988;8.450;2022-10-16T18:21:24;16.10;99.90
21815;DHT22;11069;48.988;8.450;2022-10-16T18:23:52;16.00;99.90
21815;DHT22;11069;48.988;8.450;2022-10-16T18:26:19;16.10;99.90
21815;DHT22;11069;48.988;8.450;2022-10-16T18:28:45;16.10;99.90
21815;DHT22;11069;48.988;8.450;2022-10-16T18:31:15;16.00;99.90
21815;DHT22;11069;48.988;8.450;2022-10-16T18:33:42;16.00;99.90
21815;DHT22;11069;48.988;8.450;2022-10-16T18:36:12;16.00;99.90
21815;DHT22;11069;48.988;8.450;2022-10-16T18:38:38;15.90;99.90
21815;DHT22;11069;48.988;8.450;2022-10-16T18:41:04;16.10;99.90
21815;DHT22;11069;48.988;8.450;2022-10-16T18:43:34;16.20;99.90
21815;DHT22;11069;48.988;8.450;2022-10-16T18:46:07;16.30;99.90
21815;DHT22;11069;48.988;8.450;2022-10-16T18:48:34;16.50;99.90
21815;DHT22;11069;48.988;8.450;2022-10-16T18:53:48;16.70;99.90
21815;DHT22;11069;48.988;8.450;2022-10-16T18:56:15;16.80;99.90
21815;DHT22;11069;48.988;8.450;2022-10-16T18:58:43;16.90;99.90
21815;DHT22;11069;48.988;8.450;2022-10-16T19:01:11;17.10;99.90
21815;DHT22;11069;48.988;8.450;2022-10-16T19:03:37;17.20;99.90
21815;DHT22;11069;48.988;8.450;2022-10-16T19:06:06;17.10;99.90
21815;DHT22;11069;48.988;8.450;2022-10-16T19:08:33;17.30;99.90
21815;DHT22;11069;48.988;8.450;2022-10-16T19:11:20;17.40;99.90
21815;DHT22;11069;48.988;8.450;2022-10-16T19:13:46;17.40;99.90
21815;DHT22;11069;48.988;8.450;2022-10-16T19:16:15;17.40;99.90
21815;DHT22;11069;48.988;8.450;2022-10-16T19:18:41;17.50;99.90
21815;DHT22;11069;48.988;8.450;2022-10-16T19:21:12;17.50;99.90
21815;DHT22;11069;48.988;8.450;2022-10-16T19:23:38;17.40;99.90
21815;DHT22;11069;48.988;8.450;2022-10-16T19:26:07;17.20;99.90
21815;DHT22;11069;48.988;8.450;2022-10-16T19:28:33;17.20;99.90
21815;DHT22;11069;48.988;8.450;2022-10-16T19:31:03;17.00;99.90
21815;DHT22;11069;48.988;8.450;2022-10-16T19:33:34;16.90;99.90
21815;DHT22;11069;48.988;8.450;2022-10-16T19:36:20;16.70;99.90
21815;DHT22;11069;48.988;8.450;2022-10-16T19:39:01;16.60;99.90
21815;DHT22;11069;48.988;8.450;2022-10-16T19:41:28;16.50;99.90
21815;DHT22;11069;48.988;8.450;2022-10-16T19:43:54;16.60;99.90
21815;DHT22;11069;48.988;8.450;2022-10-16T19:46:24;16.70;99.90
21815;DHT22;11069;48.988;8.450;2022-10-16T19:48:59;16.80;99.90
21815;DHT22;11069;48.988;8.450;2022-10-16T19:51:25;16.90;99.90
21815;DHT22;11069;48.988;8.450;2022-10-16T19:53:56;16.90;99.90
21815;DHT22;11069;48.988;8.450;2022-10-16T19:56:24;16.80;99.90
21815;DHT22;11069;48.988;8.450;2022-10-16T19:58:51;16.80;99.90
21815;DHT22;11069;48.988;8.450;2022-10-16T20:01:18;16.70;99.90
21815;DHT22;11069;48.988;8.450;2022-10-16T20:03:46;16.70;99.90
21815;DHT22;11069;48.988;8.450;2022-10-16T20:06:13;16.60;99.90
21815;DHT22;11069;48.988;8.450;2022-10-16T20:08:40;16.60;99.90
21815;DHT22;11069;48.988;8.450;2022-10-16T20:11:11;16.60;99.90
21815;DHT22;11069;48.988;8.450;2022-10-16T20:13:37;16.60;99.90
21815;DHT22;11069;48.988;8.450;2022-10-16T20:16:03;16.60;99.90
21815;DHT22;11069;48.988;8.450;2022-10-16T20:18:29;16.60;99.90
21815;DHT22;11069;48.988;8.450;2022-10-16T20:20:55;16.50;99.90
21815;DHT22;11069;48.988;8.450;2022-10-16T20:23:20;16.50;99.90
21815;DHT22;11069;48.988;8.450;2022-10-16T20:25:48;16.40;99.90
21815;DHT22;11069;48.988;8.450;2022-10-16T20:28:16;16.40;99.90
21815;DHT22;11069;48.988;8.450;2022-10-16T20:30:44;16.40;99.90
21815;DHT22;11069;48.988;8.450;2022-10-16T20:33:11;16.30;99.90
21815;DHT22;11069;48.988;8.450;2022-10-16T20:35:39;16.30;99.90
21815;DHT22;11069;48.988;8.450;2022-10-16T20:38:06;16.30;99.90
21815;DHT22;11069;48.988;8.450;2022-10-16T20:40:40;16.10;99.90
21815;DHT22;11069;48.988;8.450;2022-10-16T20:43:06;16.10;99.90
21815;DHT22;11069;48.988;8.450;2022-10-16T20:45:32;15.90;99.90
21815;DHT22;11069;48.988;8.450;2022-10-16T20:47:58;15.80;99.90
21815;DHT22;11069;48.988;8.450;2022-10-16T20:50:27;15.60;99.90
21815;DHT22;11069;48.988;8.450;2022-10-16T20:52:52;15.50;99.90
21815;DHT22;11069;48.988;8.450;2022-10-16T20:55:18;15.50;99.90
21815;DHT22;11069;48.988;8.450;2022-10-16T20:57:44;15.40;99.90
21815;DHT22;11069;48.988;8.450;2022-10-16T21:00:11;15.30;99.90
21815;DHT22;11069;48.988;8.450;2022-10-16T21:02:40;15.20;99.90
21815;DHT22;11069;48.988;8.450;2022-10-16T21:05:11;15.00;99.90
21815;DHT22;11069;48.988;8.450;2022-10-16T21:07:37;14.80;99.90
21815;DHT22;11069;48.988;8.450;2022-10-16T21:10:03;14.70;99.90
21815;DHT22;11069;48.988;8.450;2022-10-16T21:12:29;14.70;99.90
21815;DHT22;11069;48.988;8.450;2022-10-16T21:14:55;14.60;99.90
21815;DHT22;11069;48.988;8.450;2022-10-16T21:17:20;14.70;99.90
21815;DHT22;11069;48.988;8.450;2022-10-16T21:19:46;14.60;99.90
21815;DHT22;11069;48.988;8.450;2022-10-16T21:22:11;14.60;99.90
21815;DHT22;11069;48.988;8.450;2022-10-16T21:24:37;14.60;99.90
21815;DHT22;11069;48.988;8.450;2022-10-16T21:27:05;14.50;99.90
21815;DHT22;11069;48.988;8.450;2022-10-16T21:29:30;14.40;99.90
21815;DHT22;11069;48.988;8.450;2022-10-16T21:31:56;14.40;99.90
21815;DHT22;11069;48.988;8.450;2022-10-16T21:34:22;14.30;99.90
21815;DHT22;11069;48.988;8.450;2022-10-16T21:36:48;14.30;99.90
21815;DHT22;11069;48.988;8.450;2022-10-16T21:39:16;14.30;99.90
21815;DHT22;11069;48.988;8.450;2022-10-16T21:41:44;14.30;99.90
21815;DHT22;11069;48.988;8.450;2022-10-16T21:44:10;14.10;99.90
21815;DHT22;11069;48.988;8.450;2022-10-16T21:46:38;14.00;99.90
21815;DHT22;11069;48.988;8.450;2022-10-16T21:49:06;13.90;99.90
21815;DHT22;11069;48.988;8.450;2022-10-16T21:51:41;13.80;99.90
21815;DHT22;11069;48.988;8.450;2022-10-16T21:54:10;13.80;99.90
21815;DHT22;11069;48.988;8.450;2022-10-16T21:56:37;13.80;99.90
21815;DHT22;11069;48.988;8.450;2022-10-16T21:59:03;13.80;99.90
21815;DHT22;11069;48.988;8.450;2022-10-16T22:01:30;13.80;99.90
21815;DHT22;11069;48.988;8.450;2022-10-16T22:03:56;13.80;99.90
21815;DHT22;11069;48.988;8.450;2022-10-16T22:06:23;13.80;99.90
21815;DHT22;11069;48.988;8.450;2022-10-16T22:08:50;13.70;99.90
21815;DHT22;11069;48.988;8.450;2022-10-16T22:11:25;13.60;99.90
21815;DHT22;11069;48.988;8.450;2022-10-16T22:13:51;13.80;99.90
21815;DHT22;11069;48.988;8.450;2022-10-16T22:16:21;13.80;99.90
21815;DHT22;11069;48.988;8.450;2022-10-16T22:18:47;13.60;99.90
21815;DHT22;11069;48.988;8.450;2022-10-16T22:21:15;13.60;99.90
21815;DHT22;11069;48.988;8.450;2022-10-16T22:23:40;13.50;99.90
21815;DHT22;11069;48.988;8.450;2022-10-16T22:26:08;13.50;99.90
21815;DHT22;11069;48.988;8.450;2022-10-16T22:28:35;13.40;99.90
21815;DHT22;11069;48.988;8.450;2022-10-16T22:31:03;13.40;99.90
21815;DHT22;11069;48.988;8.450;2022-10-16T22:33:29;13.40;99.90
21815;DHT22;11069;48.988;8.450;2022-10-16T22:35:54;13.30;99.90
21815;DHT22;11069;48.988;8.450;2022-10-16T22:38:20;13.30;99.90
21815;DHT22;11069;48.988;8.450;2022-10-16T22:40:45;13.30;99.90
21815;DHT22;11069;48.988;8.450;2022-10-16T22:43:11;13.40;99.90
21815;DHT22;11069;48.988;8.450;2022-10-16T22:45:37;13.40;99.90
21815;DHT22;11069;48.988;8.450;2022-10-16T22:48:03;13.40;99.90
21815;DHT22;11069;48.988;8.450;2022-10-16T22:50:29;13.40;99.90
21815;DHT22;11069;48.988;8.450;2022-10-16T22:52:55;13.30;99.90
21815;DHT22;11069;48.988;8.450;2022-10-16T22:55:21;13.30;99.90
21815;DHT22;11069;48.988;8.450;2022-10-16T22:57:47;13.20;99.90
21815;DHT22;11069;48.988;8.450;2022-10-16T23:00:16;13.20;99.90
21815;DHT22;11069;48.988;8.450;2022-10-16T23:02:43;13.20;99.90
21815;DHT22;11069;48.988;8.450;2022-10-16T23:05:09;13.20;99.90
21815;DHT22;11069;48.988;8.450;2022-10-16T23:07:35;13.10;99.90
21815;DHT22;11069;48.988;8.450;2022-10-16T23:10:02;13.10;99.90
21815;DHT22;11069;48.988;8.450;2022-10-16T23:12:30;13.10;99.90
21815;DHT22;11069;48.988;8.450;2022-10-16T23:14:59;13.10;99.90
21815;DHT22;11069;48.988;8.450;2022-10-16T23:17:24;13.00;99.90
21815;DHT22;11069;48.988;8.450;2022-10-16T23:19:50;12.90;99.90
21815;DHT22;11069;48.988;8.450;2022-10-16T23:22:15;12.90;99.90
21815;DHT22;11069;48.988;8.450;2022-10-16T23:24:41;12.90;99.90
21815;DHT22;11069;48.988;8.450;2022-10-16T23:27:07;12.90;99.90
21815;DHT22;11069;48.988;8.450;2022-10-16T23:29:32;12.80;99.90
21815;DHT22;11069;48.988;8.450;2022-10-16T23:31:58;12.90;99.90
21815;DHT22;11069;48.988;8.450;2022-10-16T23:34:23;12.70;99.90
21815;DHT22;11069;48.988;8.450;2022-10-16T23:36:49;12.70;99.90
21815;DHT22;11069;48.988;8.450;2022-10-16T23:39:15;12.70;99.90
21815;DHT22;11069;48.988;8.450;2022-10-16T23:41:41;12.70;99.90
21815;DHT22;11069;48.988;8.450;2022-10-16T23:44:09;12.60;99.90
21815;DHT22;11069;48.988;8.450;2022-10-16T23:46:35;12.60;99.90
21815;DHT22;11069;48.988;8.450;2022-10-16T23:49:04;12.60;99.90
21815;DHT22;11069;48.988;8.450;2022-10-16T23:51:33;12.60;99.90
21815;DHT22;11069;48.988;8.450;2022-10-16T23:53:58;12.70;99.90
21815;DHT22;11069;48.988;8.450;2022-10-16T23:56:24;12.70;99.90
21815;DHT22;11069;48.988;8.450;2022-10-16T23:58:49;12.70;99.90
